createdAt,value
2019-02-18T00:00:15.420Z,54.40
2019-02-18T00:01:15.441Z,60.30
2019-02-18T00:02:15.425Z,60.00
2019-02-18T00:03:15.363Z,52.40
2019-02-18T00:04:15.366Z,55.00
2019-02-18T00:05:15.374Z,51.70
2019-02-18T00:06:15.347Z,51.30
2019-02-18T00:07:15.383Z,57.80
2019-02-18T00:08:15.314Z,58.80
2019-02-18T00:09:15.337Z,56.90
2019-02-18T00:10:15.296Z,55.20
2019-02-18T00:11:15.301Z,56.40
2019-02-18T00:12:15.265Z,54.10
2019-02-18T00:13:15.260Z,52.90
2019-02-18T00:14:15.255Z,51.50
2019-02-18T00:15:15.252Z,56.90
2019-02-18T00:16:15.285Z,59.10
2019-02-18T00:17:15.256Z,56.50
2019-02-18T00:18:15.235Z,53.80
2019-02-18T00:19:15.305Z,59.10
2019-02-18T00:20:15.180Z,54.10
2019-02-18T00:21:15.167Z,58.60
2019-02-18T00:22:15.161Z,57.40
2019-02-18T00:23:15.149Z,62.60
2019-02-18T00:24:15.158Z,63.40
2019-02-18T00:25:15.323Z,59.60
2019-02-18T00:26:15.193Z,62.30
2019-02-18T00:27:15.110Z,56.40
2019-02-18T00:28:15.152Z,58.70
2019-02-18T00:29:15.118Z,58.40
2019-02-18T00:30:15.080Z,62.20
2019-02-18T00:31:15.087Z,60.00
2019-02-18T00:32:15.205Z,52.90
2019-02-18T00:33:15.045Z,54.60
2019-02-18T00:34:15.062Z,53.60
2019-02-18T00:35:15.070Z,52.70
2019-02-18T00:36:15.003Z,56.30
2019-02-18T00:37:23.899Z,54.00
2019-02-18T00:38:15.995Z,57.90
2019-02-18T00:39:15.002Z,54.40
2019-02-18T00:40:15.000Z,53.10
2019-02-18T00:41:14.978Z,60.60
2019-02-18T00:42:14.947Z,54.70
2019-02-18T00:43:14.946Z,55.40
2019-02-18T00:44:14.917Z,53.70
2019-02-18T00:45:14.937Z,50.20
2019-02-18T00:46:14.960Z,59.20
2019-02-18T00:47:14.923Z,56.80
2019-02-18T00:48:14.882Z,58.00
2019-02-18T00:49:14.878Z,59.00
2019-02-18T00:50:14.859Z,51.50
2019-02-18T00:51:14.858Z,55.00
2019-02-18T00:52:14.838Z,51.30
2019-02-18T00:53:14.855Z,48.70
2019-02-18T00:54:14.879Z,49.60
2019-02-18T00:55:14.838Z,53.50
2019-02-18T00:56:14.786Z,51.00
2019-02-18T00:57:14.791Z,51.30
2019-02-18T00:58:14.771Z,49.40
2019-02-18T00:59:14.760Z,53.00
2019-02-18T01:00:14.759Z,51.00
2019-02-18T01:01:14.761Z,54.40
2019-02-18T01:02:14.724Z,52.20
2019-02-18T01:03:14.711Z,54.60
2019-02-18T01:04:14.749Z,52.10
2019-02-18T01:05:14.730Z,51.60
2019-02-18T01:06:14.689Z,49.30
2019-02-18T01:07:14.670Z,50.70
2019-02-18T01:08:14.663Z,51.70
2019-02-18T01:09:14.648Z,50.40
2019-02-18T01:10:14.662Z,50.60
2019-02-18T01:11:14.624Z,47.40
2019-02-18T01:12:14.617Z,56.80
2019-02-18T01:13:14.639Z,61.20
2019-02-18T01:14:14.604Z,56.70
2019-02-18T01:15:14.720Z,48.40
2019-02-18T01:16:14.586Z,54.40
2019-02-18T01:17:14.628Z,52.20
2019-02-18T01:18:14.578Z,56.40
2019-02-18T01:19:14.539Z,55.30
2019-02-18T01:20:14.546Z,56.50
2019-02-18T01:21:14.516Z,55.30
2019-02-18T01:22:14.588Z,56.80
2019-02-18T01:23:14.509Z,57.80
2019-02-18T01:24:14.503Z,54.40
2019-02-18T01:25:14.496Z,57.80
2019-02-18T01:26:14.526Z,58.60
2019-02-18T01:27:14.446Z,53.50
2019-02-18T01:28:14.438Z,53.30
2019-02-18T01:29:14.509Z,50.70
2019-02-18T01:30:14.475Z,50.20
2019-02-18T01:31:14.413Z,51.20
2019-02-18T01:32:14.405Z,52.90
2019-02-18T01:33:14.460Z,49.60
2019-02-18T01:34:14.381Z,51.80
2019-02-18T01:35:14.395Z,49.40
2019-02-18T01:36:14.350Z,51.50
2019-02-18T01:37:14.373Z,53.50
2019-02-18T01:38:14.334Z,53.80
2019-02-18T01:39:14.334Z,50.20
2019-02-18T01:40:14.447Z,56.90
2019-02-18T01:41:14.309Z,54.00
2019-02-18T01:42:14.293Z,51.80
2019-02-18T01:43:14.275Z,53.40
2019-02-18T01:44:14.262Z,50.60
2019-02-18T01:45:14.293Z,56.50
2019-02-18T01:46:14.300Z,55.50
2019-02-18T01:47:14.232Z,53.90
2019-02-18T01:48:14.234Z,47.90
2019-02-18T01:49:14.219Z,49.80
2019-02-18T01:50:14.202Z,52.10
2019-02-18T01:51:14.225Z,48.70
2019-02-18T01:52:14.185Z,48.60
2019-02-18T01:53:14.175Z,54.80
2019-02-18T01:54:14.158Z,49.90
2019-02-18T01:55:14.156Z,44.80
2019-02-18T01:56:14.141Z,49.40
2019-02-18T01:57:14.138Z,51.20
2019-02-18T01:58:14.241Z,44.80
2019-02-18T01:59:14.129Z,47.40
2019-02-18T02:00:14.122Z,46.50
2019-02-18T02:01:14.122Z,47.20
2019-02-18T02:02:14.072Z,45.60
2019-02-18T02:03:14.091Z,48.20
2019-02-18T02:04:14.061Z,47.70
2019-02-18T02:05:14.098Z,49.00
2019-02-18T02:06:14.045Z,47.30
2019-02-18T02:07:14.037Z,48.70
2019-02-18T02:08:14.008Z,46.60
2019-02-18T02:09:14.027Z,45.10
2019-02-18T02:10:13.994Z,44.80
2019-02-18T02:11:14.009Z,47.40
2019-02-18T02:12:13.970Z,46.50
2019-02-18T02:13:13.971Z,47.60
2019-02-18T02:14:14.006Z,44.90
2019-02-18T02:15:13.935Z,43.60
2019-02-18T02:16:13.938Z,46.50
2019-02-18T02:17:13.923Z,43.70
2019-02-18T02:18:13.902Z,42.80
2019-02-18T02:19:13.891Z,46.20
2019-02-18T02:20:13.874Z,45.50
2019-02-18T02:21:13.884Z,46.30
2019-02-18T02:22:13.915Z,49.20
2019-02-18T02:23:13.887Z,46.40
2019-02-18T02:24:13.859Z,48.80
2019-02-18T02:25:13.823Z,53.40
2019-02-18T02:26:14.258Z,56.10
2019-02-18T02:27:13.802Z,46.20
2019-02-18T02:28:13.814Z,45.40
2019-02-18T02:29:13.781Z,50.40
2019-02-18T02:30:13.769Z,51.80
2019-02-18T02:31:13.892Z,44.80
2019-02-18T02:32:13.767Z,43.90
2019-02-18T02:33:13.749Z,43.60
2019-02-18T02:34:13.726Z,46.80
2019-02-18T02:35:13.717Z,43.30
2019-02-18T02:36:13.737Z,45.70
2019-02-18T02:37:13.706Z,38.20
2019-02-18T02:38:13.697Z,47.60
2019-02-18T02:39:13.692Z,45.80
2019-02-18T02:40:13.681Z,45.10
2019-02-18T02:41:13.673Z,43.30
2019-02-18T02:42:21.662Z,46.80
2019-02-18T02:43:13.633Z,43.90
2019-02-18T02:44:13.623Z,46.50
2019-02-18T02:45:13.639Z,50.00
2019-02-18T02:46:13.602Z,49.50
2019-02-18T02:47:13.613Z,46.40
2019-02-18T02:48:13.615Z,45.80
2019-02-18T02:49:13.602Z,43.80
2019-02-18T02:50:13.635Z,43.10
2019-02-18T02:51:13.567Z,44.60
2019-02-18T02:52:13.535Z,39.10
2019-02-18T02:53:13.587Z,43.30
2019-02-18T02:54:13.578Z,42.60
2019-02-18T02:55:13.516Z,41.00
2019-02-18T02:56:13.496Z,43.80
2019-02-18T02:57:13.507Z,43.10
2019-02-18T02:58:13.481Z,43.30
2019-02-18T02:59:13.454Z,45.90
2019-02-18T03:00:13.465Z,42.20
2019-02-18T03:01:13.437Z,41.60
2019-02-18T03:02:13.451Z,48.60
2019-02-18T03:03:13.422Z,44.90
2019-02-18T03:04:13.428Z,44.20
2019-02-18T03:05:13.401Z,39.50
2019-02-18T03:06:13.394Z,41.90
2019-02-18T03:07:13.383Z,44.10
2019-02-18T03:08:20.493Z,42.10
2019-02-18T03:09:14.405Z,41.90
2019-02-18T03:10:13.349Z,43.50
2019-02-18T03:11:13.330Z,45.30
2019-02-18T03:12:13.357Z,45.70
2019-02-18T03:13:13.347Z,48.60
2019-02-18T03:14:13.314Z,46.50
2019-02-18T03:15:13.299Z,46.00
2019-02-18T03:16:13.286Z,48.10
2019-02-18T03:17:13.281Z,45.30
2019-02-18T03:18:13.336Z,42.10
2019-02-18T03:19:13.265Z,42.40
2019-02-18T03:20:13.245Z,45.10
2019-02-18T03:21:13.223Z,42.80
2019-02-18T03:22:13.268Z,45.20
2019-02-18T03:23:13.215Z,43.70
2019-02-18T03:24:13.201Z,46.50
2019-02-18T03:25:13.192Z,54.40
2019-02-18T03:26:13.199Z,49.80
2019-02-18T03:27:13.170Z,48.80
2019-02-18T03:28:13.156Z,47.80
2019-02-18T03:29:13.138Z,44.80
2019-02-18T03:30:13.250Z,45.30
2019-02-18T03:31:13.135Z,44.70
2019-02-18T03:32:13.124Z,47.30
2019-02-18T03:33:13.117Z,50.70
2019-02-18T03:34:13.112Z,48.00
2019-02-18T03:35:13.080Z,48.20
2019-02-18T03:36:13.069Z,46.60
2019-02-18T03:37:13.086Z,47.70
2019-02-18T03:38:13.042Z,42.90
2019-02-18T03:39:13.033Z,46.00
2019-02-18T03:40:13.025Z,43.60
2019-02-18T03:41:13.028Z,45.70
2019-02-18T03:42:13.010Z,51.90
2019-02-18T03:43:13.044Z,56.30
2019-02-18T03:44:13.060Z,48.60
2019-02-18T03:45:12.987Z,41.00
2019-02-18T03:46:12.991Z,44.80
2019-02-18T03:47:12.953Z,46.90
2019-02-18T03:48:12.949Z,48.90
2019-02-18T03:49:12.989Z,45.70
2019-02-18T03:50:12.918Z,46.70
2019-02-18T03:51:12.908Z,47.10
2019-02-18T03:52:12.911Z,44.70
2019-02-18T03:53:12.901Z,47.70
2019-02-18T03:54:12.899Z,49.20
2019-02-18T03:55:12.938Z,46.90
2019-02-18T03:56:12.860Z,42.60
2019-02-18T03:57:12.879Z,40.40
2019-02-18T03:58:12.841Z,41.00
2019-02-18T03:59:12.827Z,45.80
2019-02-18T04:00:12.861Z,44.50
2019-02-18T04:01:12.802Z,44.10
2019-02-18T04:02:12.789Z,39.00
2019-02-18T04:03:12.793Z,39.60
2019-02-18T04:04:12.766Z,45.60
2019-02-18T04:05:12.767Z,37.70
2019-02-18T04:06:12.753Z,40.10
2019-02-18T04:07:12.742Z,39.90
2019-02-18T04:08:12.756Z,37.10
2019-02-18T04:09:12.727Z,37.50
2019-02-18T04:10:12.742Z,37.40
2019-02-18T04:11:12.738Z,37.60
2019-02-18T04:12:12.681Z,39.40
2019-02-18T04:13:12.691Z,37.60
2019-02-18T04:14:12.683Z,39.10
2019-02-18T04:15:12.652Z,34.50
2019-02-18T04:16:12.672Z,36.80
2019-02-18T04:17:12.655Z,36.00
2019-02-18T04:18:12.621Z,33.70
2019-02-18T04:19:12.625Z,36.20
2019-02-18T04:20:12.612Z,34.00
2019-02-18T04:21:12.590Z,35.00
2019-02-18T04:22:12.587Z,36.00
2019-02-18T04:23:12.561Z,34.70
2019-02-18T04:24:12.561Z,34.10
2019-02-18T04:25:12.561Z,39.20
2019-02-18T04:26:12.547Z,37.20
2019-02-18T04:27:12.540Z,34.90
2019-02-18T04:28:12.525Z,35.30
2019-02-18T04:29:12.501Z,36.00
2019-02-18T04:30:13.736Z,33.40
2019-02-18T04:31:12.480Z,38.70
2019-02-18T04:32:12.468Z,37.20
2019-02-18T04:33:12.469Z,37.00
2019-02-18T04:34:12.460Z,36.20
2019-02-18T04:35:12.461Z,33.60
2019-02-18T04:36:12.511Z,34.60
2019-02-18T04:37:12.445Z,37.70
2019-02-18T04:38:12.410Z,33.80
2019-02-18T04:39:12.404Z,36.40
2019-02-18T04:40:12.432Z,37.00
2019-02-18T04:41:12.388Z,38.50
2019-02-18T04:42:12.391Z,36.00
2019-02-18T04:43:12.370Z,35.00
2019-02-18T04:44:12.357Z,37.40
2019-02-18T04:45:12.346Z,33.90
2019-02-18T04:46:12.316Z,38.60
2019-02-18T04:47:12.308Z,33.60
2019-02-18T04:48:12.321Z,31.30
2019-02-18T04:49:12.320Z,36.30
2019-02-18T04:50:12.282Z,34.50
2019-02-18T04:51:12.268Z,35.90
2019-02-18T04:52:12.267Z,34.00
2019-02-18T04:53:12.250Z,38.00
2019-02-18T04:54:12.256Z,34.30
2019-02-18T04:55:12.228Z,36.00
2019-02-18T04:56:12.219Z,37.80
2019-02-18T04:57:12.213Z,35.10
2019-02-18T04:58:12.196Z,37.10
2019-02-18T04:59:12.223Z,37.60
2019-02-18T05:00:12.188Z,36.80
2019-02-18T05:01:12.172Z,41.10
2019-02-18T05:02:12.151Z,41.70
2019-02-18T05:03:12.159Z,41.70
2019-02-18T05:04:14.101Z,37.00
2019-02-18T05:05:12.153Z,40.40
2019-02-18T05:06:12.195Z,44.80
2019-02-18T05:07:12.610Z,46.40
2019-02-18T05:08:12.094Z,36.50
2019-02-18T05:09:12.154Z,44.00
2019-02-18T05:10:12.087Z,40.40
2019-02-18T05:11:12.068Z,42.90
2019-02-18T05:12:12.054Z,42.40
2019-02-18T05:13:12.049Z,42.20
2019-02-18T05:14:12.050Z,39.10
2019-02-18T05:15:12.014Z,41.10
2019-02-18T05:16:12.010Z,39.30
2019-02-18T05:17:11.992Z,40.50
2019-02-18T05:18:11.985Z,38.70
2019-02-18T05:19:12.017Z,41.00
2019-02-18T05:20:11.998Z,40.80
2019-02-18T05:21:11.972Z,41.50
2019-02-18T05:22:11.994Z,38.40
2019-02-18T05:23:12.649Z,40.80
2019-02-18T05:24:12.209Z,44.10
2019-02-18T05:25:12.994Z,42.20
2019-02-18T05:26:11.931Z,40.50
2019-02-18T05:27:11.886Z,42.20
2019-02-18T05:28:11.884Z,42.30
2019-02-18T05:29:11.909Z,42.30
2019-02-18T05:30:11.858Z,41.60
2019-02-18T05:31:11.855Z,42.50
2019-02-18T05:32:11.842Z,41.70
2019-02-18T05:33:11.821Z,43.70
2019-02-18T05:34:11.889Z,43.50
2019-02-18T05:35:11.922Z,43.50
2019-02-18T05:36:11.791Z,44.70
2019-02-18T05:37:11.803Z,45.90
2019-02-18T05:38:11.781Z,40.60
2019-02-18T05:39:17.984Z,40.00
2019-02-18T05:40:12.753Z,43.00
2019-02-18T05:41:11.748Z,44.80
2019-02-18T05:42:11.800Z,45.80
2019-02-18T05:43:11.715Z,42.90
2019-02-18T05:44:11.714Z,43.80
2019-02-18T05:45:11.719Z,44.00
2019-02-18T05:46:11.689Z,41.80
2019-02-18T05:47:11.674Z,45.50
2019-02-18T05:48:11.712Z,41.00
2019-02-18T05:49:11.705Z,43.10
2019-02-18T05:50:11.650Z,43.70
2019-02-18T05:51:11.635Z,42.00
2019-02-18T05:52:11.764Z,43.80
2019-02-18T05:53:11.612Z,40.10
2019-02-18T05:54:11.633Z,42.90
2019-02-18T05:55:11.590Z,42.60
2019-02-18T05:56:11.594Z,44.20
2019-02-18T05:57:11.564Z,44.70
2019-02-18T05:58:11.554Z,43.10
2019-02-18T05:59:11.576Z,47.90
2019-02-18T06:00:11.545Z,43.20
2019-02-18T06:01:11.524Z,42.30
2019-02-18T06:02:11.513Z,43.90
2019-02-18T06:03:11.505Z,45.70
2019-02-18T06:04:11.501Z,47.60
2019-02-18T06:05:11.572Z,48.40
2019-02-18T06:06:11.470Z,43.90
2019-02-18T06:07:11.460Z,44.90
2019-02-18T06:08:11.453Z,44.10
2019-02-18T06:09:11.441Z,52.80
2019-02-18T06:10:11.466Z,49.00
2019-02-18T06:11:11.444Z,46.20
2019-02-18T06:12:11.424Z,46.10
2019-02-18T06:13:11.403Z,52.30
2019-02-18T06:14:11.393Z,50.20
2019-02-18T06:15:11.418Z,49.20
2019-02-18T06:16:11.368Z,47.10
2019-02-18T06:17:11.379Z,49.70
2019-02-18T06:18:11.350Z,49.40
2019-02-18T06:19:11.331Z,48.30
2019-02-18T06:20:11.352Z,45.60
2019-02-18T06:21:11.697Z,46.60
2019-02-18T06:22:11.808Z,48.40
2019-02-18T06:23:11.382Z,46.70
2019-02-18T06:24:11.605Z,45.80
2019-02-18T06:25:11.380Z,50.60
2019-02-18T06:26:11.258Z,49.80
2019-02-18T06:27:11.264Z,51.30
2019-02-18T06:28:11.251Z,54.30
2019-02-18T06:29:11.248Z,47.90
2019-02-18T06:30:11.234Z,45.10
2019-02-18T06:31:11.214Z,48.20
2019-02-18T06:32:11.214Z,46.00
2019-02-18T06:33:11.189Z,49.90
2019-02-18T06:34:11.180Z,55.40
2019-02-18T06:35:11.202Z,55.30
2019-02-18T06:36:11.154Z,51.20
2019-02-18T06:37:11.147Z,50.90
2019-02-18T06:38:11.134Z,44.30
2019-02-18T06:39:11.141Z,48.50
2019-02-18T06:40:11.128Z,48.80
2019-02-18T06:41:11.111Z,48.30
2019-02-18T06:42:11.393Z,49.30
2019-02-18T06:43:11.080Z,49.20
2019-02-18T06:44:11.102Z,52.00
2019-02-18T06:45:12.013Z,48.40
2019-02-18T06:46:11.050Z,48.10
2019-02-18T06:47:11.036Z,52.00
2019-02-18T06:48:11.028Z,47.90
2019-02-18T06:49:11.030Z,53.30
2019-02-18T06:50:11.041Z,55.10
2019-02-18T06:51:11.000Z,47.20
2019-02-18T06:52:10.989Z,54.60
2019-02-18T06:53:10.974Z,53.40
2019-02-18T06:54:10.967Z,55.10
2019-02-18T06:55:10.956Z,43.70
2019-02-18T06:56:11.127Z,50.60
2019-02-18T06:57:10.938Z,50.30
2019-02-18T06:58:12.650Z,43.10
2019-02-18T06:59:10.942Z,52.30
2019-02-18T07:00:10.907Z,49.40
2019-02-18T07:01:10.902Z,49.20
2019-02-18T07:02:10.937Z,53.80
2019-02-18T07:03:10.902Z,51.30
2019-02-18T07:04:10.862Z,45.80
2019-02-18T07:05:10.851Z,55.90
2019-02-18T07:06:10.838Z,51.50
2019-02-18T07:07:10.827Z,46.30
2019-02-18T07:08:10.813Z,44.00
2019-02-18T07:09:10.818Z,45.60
2019-02-18T07:10:10.803Z,47.20
2019-02-18T07:11:10.805Z,55.10
2019-02-18T07:12:10.777Z,51.80
2019-02-18T07:13:10.767Z,52.60
2019-02-18T07:14:10.755Z,48.70
2019-02-18T07:15:10.805Z,49.90
2019-02-18T07:16:10.745Z,50.60
2019-02-18T07:17:10.728Z,48.40
2019-02-18T07:18:10.708Z,49.80
2019-02-18T07:19:10.719Z,54.30
2019-02-18T07:20:10.685Z,50.40
2019-02-18T07:21:10.686Z,55.00
2019-02-18T07:22:10.680Z,49.30
2019-02-18T07:23:10.654Z,52.40
2019-02-18T07:24:10.644Z,52.40
2019-02-18T07:25:10.641Z,53.60
2019-02-18T07:26:10.625Z,55.60
2019-02-18T07:27:10.626Z,50.20
2019-02-18T07:28:10.600Z,60.20
2019-02-18T07:29:10.591Z,51.50
2019-02-18T07:30:10.579Z,46.00
2019-02-18T07:31:10.569Z,48.80
2019-02-18T07:32:10.565Z,49.30
2019-02-18T07:33:10.548Z,48.80
2019-02-18T07:34:10.536Z,47.20
2019-02-18T07:35:10.523Z,56.50
2019-02-18T07:36:10.517Z,47.00
2019-02-18T07:37:10.512Z,45.20
2019-02-18T07:38:10.492Z,41.40
2019-02-18T07:39:10.536Z,42.40
2019-02-18T07:40:10.471Z,45.60
2019-02-18T07:41:10.459Z,55.30
2019-02-18T07:42:10.456Z,44.20
2019-02-18T07:43:10.440Z,45.50
2019-02-18T07:44:10.428Z,43.00
2019-02-18T07:45:10.413Z,38.20
2019-02-18T07:46:10.479Z,41.20
2019-02-18T07:47:10.403Z,44.50
2019-02-18T07:48:10.383Z,47.90
2019-02-18T07:49:10.372Z,39.40
2019-02-18T07:50:19.999Z,45.90
2019-02-18T07:51:11.352Z,43.00
2019-02-18T07:52:10.349Z,42.40
2019-02-18T07:53:10.345Z,41.20
2019-02-18T07:54:10.465Z,39.90
2019-02-18T07:55:10.309Z,37.80
2019-02-18T07:56:10.298Z,38.90
2019-02-18T07:57:10.297Z,40.30
2019-02-18T07:58:10.276Z,38.00
2019-02-18T07:59:10.273Z,38.00
2019-02-18T08:00:10.261Z,40.40
2019-02-18T08:01:10.240Z,43.40
2019-02-18T08:02:10.303Z,42.40
2019-02-18T08:03:10.217Z,39.60
2019-02-18T08:04:10.209Z,40.80
2019-02-18T08:05:10.207Z,38.00
2019-02-18T08:06:10.189Z,36.40
2019-02-18T08:07:10.183Z,41.60
2019-02-18T08:08:10.176Z,40.30
2019-02-18T08:09:10.152Z,39.70
2019-02-18T08:10:12.357Z,39.90
2019-02-18T08:11:10.144Z,37.80
2019-02-18T08:12:10.121Z,37.00
2019-02-18T08:13:10.125Z,35.30
2019-02-18T08:14:10.101Z,36.20
2019-02-18T08:15:10.091Z,37.30
2019-02-18T08:16:10.077Z,37.80
2019-02-18T08:17:10.066Z,36.80
2019-02-18T08:18:10.102Z,40.00
2019-02-18T08:19:10.043Z,35.90
2019-02-18T08:20:10.037Z,39.40
2019-02-18T08:21:10.021Z,33.90
2019-02-18T08:22:10.014Z,32.70
2019-02-18T08:23:10.016Z,33.20
2019-02-18T08:24:09.987Z,34.80
2019-02-18T08:25:09.977Z,35.70
2019-02-18T08:26:09.971Z,34.80
2019-02-18T08:27:09.955Z,36.10
2019-02-18T08:28:10.052Z,30.50
2019-02-18T08:29:10.075Z,33.50
2019-02-18T08:30:10.005Z,32.90
2019-02-18T08:31:09.971Z,33.20
2019-02-18T08:32:10.920Z,34.50
2019-02-18T08:33:10.123Z,30.40
2019-02-18T08:34:09.913Z,37.00
2019-02-18T08:35:09.896Z,35.70
2019-02-18T08:36:09.920Z,33.70
2019-02-18T08:37:09.880Z,33.90
2019-02-18T08:38:09.907Z,30.70
2019-02-18T08:39:09.852Z,35.60
2019-02-18T08:40:09.821Z,34.40
2019-02-18T08:41:09.816Z,33.00
2019-02-18T08:42:09.808Z,36.90
2019-02-18T08:43:09.807Z,31.60
2019-02-18T08:44:09.792Z,37.50
2019-02-18T08:45:09.785Z,34.90
2019-02-18T08:46:09.755Z,32.90
2019-02-18T08:47:09.786Z,32.10
2019-02-18T08:48:09.735Z,34.00
2019-02-18T08:49:09.739Z,31.20
2019-02-18T08:50:09.718Z,32.60
2019-02-18T08:51:09.703Z,34.70
2019-02-18T08:52:09.683Z,33.00
2019-02-18T08:53:09.673Z,31.30
2019-02-18T08:54:09.675Z,32.10
2019-02-18T08:55:09.651Z,33.30
2019-02-18T08:56:09.646Z,30.50
2019-02-18T08:57:09.639Z,33.30
2019-02-18T08:58:09.629Z,31.80
2019-02-18T08:59:11.124Z,34.00
2019-02-18T09:00:09.599Z,32.10
2019-02-18T09:01:09.587Z,31.90
2019-02-18T09:02:09.579Z,31.80
2019-02-18T09:03:09.569Z,31.90
2019-02-18T09:04:09.557Z,37.90
2019-02-18T09:05:09.649Z,27.30
2019-02-18T09:06:09.547Z,30.00
2019-02-18T09:07:09.524Z,31.50
2019-02-18T09:08:09.514Z,27.80
2019-02-18T09:09:09.522Z,30.30
2019-02-18T09:10:09.500Z,30.60
2019-02-18T09:11:09.501Z,30.70
2019-02-18T09:12:09.578Z,25.10
2019-02-18T09:13:09.458Z,25.80
2019-02-18T09:14:09.458Z,24.70
2019-02-18T09:15:09.437Z,29.80
2019-02-18T09:16:09.430Z,24.80
2019-02-18T09:17:09.443Z,29.10
2019-02-18T09:18:09.406Z,26.30
2019-02-18T09:19:09.453Z,23.60
2019-02-18T09:20:09.380Z,24.90
2019-02-18T09:21:09.370Z,27.80
2019-02-18T09:22:09.363Z,32.10
2019-02-18T09:23:09.352Z,28.10
2019-02-18T09:24:09.349Z,31.00
2019-02-18T09:25:09.344Z,25.80
2019-02-18T09:26:09.315Z,28.50
2019-02-18T09:27:09.307Z,27.20
2019-02-18T09:28:09.297Z,26.40
2019-02-18T09:29:09.298Z,29.80
2019-02-18T09:30:09.395Z,28.70
2019-02-18T09:31:09.266Z,33.80
2019-02-18T09:32:09.271Z,31.60
2019-02-18T09:33:09.242Z,30.10
2019-02-18T09:34:11.189Z,28.80
2019-02-18T09:35:14.118Z,26.30
2019-02-18T09:36:09.240Z,29.60
2019-02-18T09:37:09.199Z,31.30
2019-02-18T09:38:09.190Z,29.80
2019-02-18T09:39:09.178Z,32.20
2019-02-18T09:40:09.176Z,27.40
2019-02-18T09:41:09.155Z,27.20
2019-02-18T09:42:09.144Z,31.40
2019-02-18T09:43:09.135Z,27.90
2019-02-18T09:44:09.137Z,29.50
2019-02-18T09:45:09.120Z,28.50
2019-02-18T09:46:09.100Z,27.10
2019-02-18T09:47:09.092Z,28.80
2019-02-18T09:48:09.095Z,25.20
2019-02-18T09:49:09.082Z,24.90
2019-02-18T09:50:09.059Z,23.10
2019-02-18T09:51:09.051Z,25.70
2019-02-18T09:52:09.051Z,30.70
2019-02-18T09:53:09.027Z,25.80
2019-02-18T09:54:09.301Z,25.90
2019-02-18T09:55:09.012Z,31.40
2019-02-18T09:56:08.999Z,30.10
2019-02-18T09:57:08.986Z,25.80
2019-02-18T09:58:08.980Z,21.10
2019-02-18T09:59:08.968Z,26.40
2019-02-18T10:00:08.959Z,24.30
2019-02-18T10:01:08.946Z,27.00
2019-02-18T10:02:08.933Z,28.60
2019-02-18T10:03:08.922Z,27.40
2019-02-18T10:04:08.912Z,28.70
2019-02-18T10:05:08.912Z,25.90
2019-02-18T10:06:08.892Z,30.20
2019-02-18T10:07:08.885Z,21.40
2019-02-18T10:08:08.870Z,21.00
2019-02-18T10:09:08.863Z,24.10
2019-02-18T10:10:08.853Z,21.70
2019-02-18T10:11:08.839Z,22.90
2019-02-18T10:12:18.045Z,22.90
2019-02-18T10:13:09.815Z,23.50
2019-02-18T10:14:08.811Z,27.00
2019-02-18T10:15:08.812Z,25.10
2019-02-18T10:16:08.786Z,21.60
2019-02-18T10:17:08.788Z,22.20
2019-02-18T10:18:09.237Z,27.10
2019-02-18T10:19:08.752Z,20.20
2019-02-18T10:20:08.754Z,23.90
2019-02-18T10:21:08.733Z,20.70
2019-02-18T10:22:08.722Z,20.60
2019-02-18T10:23:08.713Z,21.60
2019-02-18T10:24:08.710Z,28.80
2019-02-18T10:25:08.700Z,29.30
2019-02-18T10:26:08.682Z,23.40
2019-02-18T10:27:08.679Z,25.70
2019-02-18T10:28:08.688Z,19.00
2019-02-18T10:29:08.654Z,21.10
2019-02-18T10:30:08.653Z,19.50
2019-02-18T10:31:08.769Z,20.80
2019-02-18T10:32:08.619Z,19.50
2019-02-18T10:33:08.609Z,18.40
2019-02-18T10:34:08.596Z,19.80
2019-02-18T10:35:08.682Z,27.60
2019-02-18T10:36:08.578Z,22.10
2019-02-18T10:37:08.568Z,19.40
2019-02-18T10:38:08.667Z,18.90
2019-02-18T10:39:08.551Z,21.80
2019-02-18T10:40:08.587Z,19.60
2019-02-18T10:41:08.525Z,19.80
2019-02-18T10:42:08.527Z,19.90
2019-02-18T10:43:08.538Z,20.20
2019-02-18T10:44:08.500Z,20.00
2019-02-18T10:45:08.523Z,18.80
2019-02-18T10:46:08.545Z,22.60
2019-02-18T10:47:08.464Z,21.10
2019-02-18T10:48:08.454Z,22.30
2019-02-18T10:49:18.945Z,15.10
2019-02-18T10:50:09.450Z,20.20
2019-02-18T10:51:08.426Z,18.00
2019-02-18T10:52:08.419Z,20.00
2019-02-18T10:53:08.509Z,18.00
2019-02-18T10:54:08.402Z,18.30
2019-02-18T10:55:08.395Z,22.30
2019-02-18T10:56:08.385Z,15.00
2019-02-18T10:57:08.374Z,20.90
2019-02-18T10:58:08.375Z,19.70
2019-02-18T10:59:08.365Z,24.30
2019-02-18T11:00:08.338Z,23.70
2019-02-18T11:01:08.345Z,96.00
2019-02-18T11:02:08.325Z,25.90
2019-02-18T11:03:08.329Z,21.90
2019-02-18T11:04:08.299Z,18.30
2019-02-18T11:05:08.294Z,21.20
2019-02-18T11:06:09.324Z,17.40
2019-02-18T11:07:08.265Z,18.40
2019-02-18T11:08:08.260Z,21.70
2019-02-18T11:09:08.275Z,16.10
2019-02-18T11:10:08.236Z,20.30
2019-02-18T11:11:16.698Z,21.70
2019-02-18T11:12:09.217Z,17.20
2019-02-18T11:13:08.204Z,20.10
2019-02-18T11:14:08.194Z,20.50
2019-02-18T11:15:08.195Z,18.00
2019-02-18T11:16:08.207Z,20.50
2019-02-18T11:17:08.169Z,17.00
2019-02-18T11:18:08.152Z,15.10
2019-02-18T11:19:08.144Z,14.90
2019-02-18T11:20:08.135Z,16.60
2019-02-18T11:21:08.130Z,16.40
2019-02-18T11:22:08.117Z,13.70
2019-02-18T11:23:08.114Z,13.70
2019-02-18T11:24:08.101Z,21.80
2019-02-18T11:25:08.086Z,17.30
2019-02-18T11:26:08.086Z,17.30
2019-02-18T11:27:08.072Z,15.20
2019-02-18T11:28:08.062Z,16.40
2019-02-18T11:29:08.060Z,17.80
2019-02-18T11:30:08.035Z,14.00
2019-02-18T11:31:08.032Z,19.20
2019-02-18T11:32:08.015Z,19.40
2019-02-18T11:33:08.013Z,18.40
2019-02-18T11:34:07.996Z,16.80
2019-02-18T11:35:07.987Z,25.20
2019-02-18T11:36:07.981Z,17.40
2019-02-18T11:37:07.966Z,19.50
2019-02-18T11:38:08.000Z,15.10
2019-02-18T11:39:07.986Z,16.70
2019-02-18T11:40:07.940Z,17.30
2019-02-18T11:41:07.932Z,15.60
2019-02-18T11:42:07.947Z,18.40
2019-02-18T11:43:07.918Z,15.70
2019-02-18T11:44:07.903Z,18.20
2019-02-18T11:45:07.916Z,18.30
2019-02-18T11:46:07.886Z,16.00
2019-02-18T11:47:07.872Z,11.90
2019-02-18T11:48:07.868Z,15.90
2019-02-18T11:49:07.870Z,18.00
2019-02-18T11:50:07.842Z,14.90
2019-02-18T11:51:07.848Z,15.40
2019-02-18T11:52:07.825Z,27.90
2019-02-18T11:53:07.818Z,17.60
2019-02-18T11:54:07.807Z,18.10
2019-02-18T11:55:07.808Z,30.70
2019-02-18T11:56:08.003Z,18.60
2019-02-18T11:57:07.810Z,22.80
2019-02-18T11:58:07.768Z,15.70
2019-02-18T11:59:07.761Z,18.80
2019-02-18T12:00:07.749Z,16.80
2019-02-18T12:01:07.758Z,19.90
2019-02-18T12:02:07.735Z,17.70
2019-02-18T12:03:12.269Z,18.20
2019-02-18T12:04:07.725Z,12.00
2019-02-18T12:05:07.714Z,21.10
2019-02-18T12:06:07.707Z,13.20
2019-02-18T12:07:07.690Z,11.10
2019-02-18T12:08:07.672Z,13.40
2019-02-18T12:09:07.664Z,10.80
2019-02-18T12:10:07.726Z,16.30
2019-02-18T12:11:07.659Z,15.60
2019-02-18T12:12:07.635Z,15.60
2019-02-18T12:13:07.625Z,11.00
2019-02-18T12:14:07.643Z,22.70
2019-02-18T12:15:07.609Z,26.00
2019-02-18T12:16:07.613Z,15.80
2019-02-18T12:17:07.590Z,12.50
2019-02-18T12:18:07.580Z,13.20
2019-02-18T12:19:07.572Z,12.00
2019-02-18T12:20:07.583Z,20.80
2019-02-18T12:21:07.563Z,14.30
2019-02-18T12:22:07.540Z,14.30
2019-02-18T12:23:07.529Z,10.50
2019-02-18T12:24:07.519Z,12.80
2019-02-18T12:25:07.509Z,12.90
2019-02-18T12:26:07.514Z,14.20
2019-02-18T12:27:07.507Z,14.70
2019-02-18T12:28:07.487Z,12.20
2019-02-18T12:29:07.472Z,14.60
2019-02-18T12:30:07.458Z,15.50
2019-02-18T12:31:07.449Z,15.00
2019-02-18T12:32:07.459Z,15.60
2019-02-18T12:33:07.434Z,10.70
2019-02-18T12:34:07.417Z,12.50
2019-02-18T12:35:07.412Z,13.80
2019-02-18T12:36:07.410Z,15.30
2019-02-18T12:37:07.395Z,15.40
2019-02-18T12:38:07.380Z,14.00
2019-02-18T12:39:07.415Z,16.20
2019-02-18T12:40:07.357Z,14.10
2019-02-18T12:41:07.387Z,15.90
2019-02-18T12:42:07.337Z,15.30
2019-02-18T12:43:08.069Z,17.70
2019-02-18T12:44:07.313Z,15.00
2019-02-18T12:45:07.356Z,14.60
2019-02-18T12:46:15.488Z,17.50
2019-02-18T12:47:08.287Z,17.70
2019-02-18T12:48:07.308Z,15.40
2019-02-18T12:49:07.257Z,19.00
2019-02-18T12:50:07.245Z,19.40
2019-02-18T12:51:07.234Z,17.60
2019-02-18T12:52:07.246Z,16.30